Time;durP1;ratioP1;P1;durP2;ratioP2;P2;SDS_P1;SDS_P2;PMS_P1;PMS_P2;Temp;Humidity;BMP_temperature;BMP_pressure;BME280_temperature;BME280_humidity;BME280_pressure;Samples;Min_cycle;Max_cycle;Signal;HPM_P1;HPM_P2
2021/11/17 02:31:35;;;;;;;14.85;10.30;;;;;;;6.12;77.68;94881.61;827421;71;32722;-78
2021/11/17 02:46:17;;;;;;;14.05;9.90;;;;;;;6.25;77.14;94889.54;828684;71;29572;-78
2021/11/17 03:16:17;;;;;;;14.75;9.65;;;;;;;6.33;76.85;94889.07;827453;71;29653;-80
2021/11/17 03:31:29;;;;;;;15.28;9.78;;;;;;;6.47;76.17;94886.79;827714;71;33103;-77
2021/11/17 03:46:08;;;;;;;17.70;11.48;;;;;;;;;;833793;71;29467;-79
2021/11/17 04:01:32;;;;;;;17.92;11.55;;;;;;;6.47;76.69;94875.06;822319;71;30727;-78
2021/11/17 04:16:35;;;;;;;16.45;11.95;;;;;;;6.38;76.96;94865.64;822854;71;29477;-77
2021/11/17 04:31:25;;;;;;;17.17;10.80;;;;;;;6.29;77.00;94874.98;833328;71;29884;-77
2021/11/17 04:46:33;;;;;;;18.87;12.03;;;;;;;6.31;77.54;94871.60;833412;71;32862;-78
2021/11/17 05:01:24;;;;;;;21.62;13.45;;;;;;;6.30;78.48;94883.05;833581;71;32759;-78
2021/11/17 05:16:44;;;;;;;15.83;10.78;;;;;;;6.32;79.08;94892.70;827456;71;32787;-79
2021/11/17 05:31:26;;;;;;;16.07;10.95;;;;;;;6.18;79.87;94892.34;821931;71;33353;-79
2021/11/17 05:46:16;;;;;;;14.87;9.30;;;;;;;6.13;79.94;94897.00;827588;71;31461;-78
2021/11/17 06:01:39;;;;;;;18.12;10.45;;;;;;;6.20;78.79;94911.92;823892;71;29714;-76
2021/11/17 06:16:14;;;;;;;19.00;12.05;;;;;;;6.39;76.29;94912.30;833231;71;33208;-76
2021/11/17 06:31:09;;;;;;;19.35;11.70;;;;;;;6.73;74.04;94934.66;828769;71;29714;-77
2021/11/17 06:46:16;;;;;;;16.20;10.03;;;;;;;6.90;72.09;94950.94;833739;71;32713;-79
2021/11/17 07:01:09;;;;;;;17.98;10.55;;;;;;;7.06;71.10;94947.13;827516;71;30364;-79
2021/11/17 07:16:18;;;;;;;17.45;10.93;;;;;;;7.08;71.47;94964.08;834535;71;33218;-79
2021/11/17 07:31:19;;;;;;;16.23;11.00;;;;;;;7.10;71.66;94961.23;828266;71;32695;-79
2021/11/17 07:46:14;;;;;;;18.40;11.18;;;;;;;7.29;71.11;94966.78;833179;71;33053;-79
2021/11/17 08:01:18;;;;;;;18.50;12.23;;;;;;;7.45;70.66;94965.80;833738;71;32753;-77
2021/11/17 08:16:23;;;;;;;20.27;12.30;;;;;;;7.41;70.83;94956.91;835626;71;32677;-78
2021/11/17 08:31:16;;;;;;;17.48;10.88;;;;;;;7.43;70.32;94968.66;822780;71;32737;-76
2021/11/17 08:46:09;;;;;;;16.27;10.95;;;;;;;7.40;69.61;94965.77;843939;69;30009;-77
2021/11/17 09:16:15;;;;;;;20.72;13.30;;;;;;;7.38;69.04;94971.77;835586;69;32772;-82
2021/11/17 09:31:15;;;;;;;21.20;14.55;;;;;;;7.49;69.93;94960.34;828603;71;33136;-84
2021/11/17 09:46:10;;;;;;;18.80;12.98;;;;;;;7.42;71.26;94957.16;819860;71;30244;-82
2021/11/17 10:01:29;;;;;;;18.60;13.45;;;;;;;7.51;70.83;94926.92;828676;71;29774;-83
2021/11/17 10:16:15;;;;;;;18.80;13.15;;;;;;;7.61;70.27;94915.72;827899;71;32827;-84
2021/11/17 10:31:12;;;;;;;15.32;12.35;;;;;;;7.97;69.33;94896.19;834592;71;30314;-82
2021/11/17 10:46:20;;;;;;;16.37;12.90;;;;;;;7.81;69.21;94887.55;827692;71;32709;-82
2021/11/17 11:01:21;;;;;;;15.58;11.22;;;;;;;7.90;68.47;94879.98;829075;71;31832;-83
2021/11/17 11:16:25;;;;;;;16.00;12.13;;;;;;;8.10;67.76;94852.53;835532;71;33283;-86
2021/11/17 11:31:13;;;;;;;13.13;9.78;;;;;;;8.24;67.38;94859.32;820932;70;30141;-83
2021/11/17 11:46:26;;;;;;;15.90;11.50;;;;;;;8.51;66.09;94851.72;827343;71;30313;-83
2021/11/17 12:01:21;;;;;;;15.98;11.30;;;;;;;8.56;65.50;94827.66;833638;71;31910;-83
2021/11/17 12:16:14;;;;;;;13.93;9.90;;;;;;;8.18;66.85;94832.93;827937;71;30102;-83
2021/11/17 12:31:18;;;;;;;15.15;11.05;;;;;;;8.34;66.39;94826.63;828290;71;31900;-84
2021/11/17 12:46:11;;;;;;;14.58;11.25;;;;;;;8.58;65.58;94809.86;828150;71;29546;-83
2021/11/17 13:01:34;;;;;;;16.57;10.95;;;;;;;8.41;65.63;94825.87;828457;71;32732;-82
2021/11/17 13:16:28;;;;;;;14.05;10.40;;;;;;;7.82;67.82;94831.11;824331;71;30391;-83
2021/11/17 13:31:32;;;;;;;15.72;11.38;;;;;;;7.61;68.71;94818.58;827937;71;32718;-84
2021/11/17 13:46:52;;;;;;;14.90;11.95;;;;;;;7.48;69.64;94808.66;788368;75;32935;-83
2021/11/17 14:01:12;;;;;;;15.68;11.18;;;;;;;7.53;69.47;94804.73;829254;71;32049;-82
2021/11/17 14:16:17;;;;;;;18.07;11.68;;;;;;;7.45;70.07;94806.55;834216;71;32715;-83
2021/11/17 14:31:25;;;;;;;16.17;11.75;;;;;;;7.36;70.40;94812.81;825703;71;32830;-83
2021/11/17 14:46:15;;;;;;;19.60;12.75;;;;;;;7.13;71.37;94815.36;797703;73;32891;-85
2021/11/17 15:16:10;;;;;;;19.55;12.55;;;;;;;6.72;73.68;94819.67;792660;74;30205;-82
2021/11/17 15:31:34;;;;;;;19.17;12.58;;;;;;;6.68;73.97;94824.61;834385;71;32794;-78
2021/11/17 15:46:14;;;;;;;24.80;13.85;;;;;;;6.49;74.81;94832.59;832912;71;33053;-80
2021/11/17 21:16:15;;;;;;;65.67;40.80;;;;;;;5.89;77.29;94959.02;833226;71;33196;-78
2021/11/17 21:31:15;;;;;;;69.22;40.85;;;;;;;5.90;76.87;94973.62;829356;71;32721;-81
2021/11/17 21:46:10;;;;;;;58.98;34.90;;;;;;;5.84;76.81;94986.32;817787;71;28511;-78
2021/11/17 22:01:11;;;;;;;53.87;32.23;;;;;;;5.77;76.90;94982.59;828928;71;30021;-80
2021/11/17 22:16:15;;;;;;;56.90;33.35;;;;;;;5.71;77.36;94978.36;826648;71;33473;-76
2021/11/17 22:31:10;;;;;;;46.53;29.40;;;;;;;5.66;76.98;94974.41;831023;71;30816;-75
2021/11/17 22:46:08;;;;;;;45.52;29.25;;;;;;;5.65;77.21;94978.03;827702;71;29753;-77
2021/11/17 23:01:19;;;;;;;43.60;27.50;;;;;;;5.61;77.19;94984.23;826739;71;32693;-75
2021/11/17 23:16:12;;;;;;;44.98;27.55;;;;;;;5.64;77.19;94973.88;827683;71;32100;-77
2021/11/17 23:31:12;;;;;;;45.75;28.70;;;;;;;5.71;77.30;94977.05;826761;71;29841;-78
2021/11/17 23:46:10;;;;;;;41.25;25.62;;;;;;;5.59;77.01;94942.57;833654;71;30302;-75
